sensor_id;sensor_type;location;lat;lon;timestamp;pressure;altitude;pressure_sealevel;temperature;humidity
63281;BME280;49406;51.044;3.766;2023-03-25T00:01:29;100380.67;;;9.61;100.00
63281;BME280;49406;51.044;3.766;2023-03-25T00:04:05;100380.96;;;9.52;100.00
63281;BME280;49406;51.044;3.766;2023-03-25T00:06:40;100377.13;;;9.54;100.00
63281;BME280;49406;51.044;3.766;2023-03-25T00:09:14;100382.52;;;9.50;100.00
63281;BME280;49406;51.044;3.766;2023-03-25T00:11:51;100385.11;;;9.42;100.00
63281;BME280;49406;51.044;3.766;2023-03-25T00:14:26;100388.20;;;9.35;100.00
63281;BME280;49406;51.044;3.766;2023-03-25T00:17:01;100383.66;;;9.35;100.00
63281;BME280;49406;51.044;3.766;2023-03-25T00:19:36;100390.64;;;9.34;100.00
63281;BME280;49406;51.044;3.766;2023-03-25T00:22:10;100394.45;;;9.30;100.00
63281;BME280;49406;51.044;3.766;2023-03-25T00:24:45;100394.45;;;9.28;100.00
63281;BME280;49406;51.044;3.766;2023-03-25T00:27:20;100390.23;;;9.25;100.00
63281;BME280;49406;51.044;3.766;2023-03-25T00:29:54;100394.96;;;9.24;100.00
63281;BME280;49406;51.044;3.766;2023-03-25T00:32:29;100399.64;;;9.23;100.00
63281;BME280;49406;51.044;3.766;2023-03-25T00:35:05;100395.76;;;9.17;100.00
63281;BME280;49406;51.044;3.766;2023-03-25T00:37:40;100387.03;;;9.16;100.00
63281;BME280;49406;51.044;3.766;2023-03-25T00:40:15;100386.86;;;9.18;100.00
63281;BME280;49406;51.044;3.766;2023-03-25T00:42:50;100392.27;;;9.15;100.00
63281;BME280;49406;51.044;3.766;2023-03-25T00:45:25;100391.02;;;9.12;100.00
63281;BME280;49406;51.044;3.766;2023-03-25T00:48:00;100393.29;;;9.11;100.00
63281;BME280;49406;51.044;3.766;2023-03-25T00:50:34;100386.65;;;9.09;100.00
63281;BME280;49406;51.044;3.766;2023-03-25T00:53:09;100389.95;;;9.07;100.00
63281;BME280;49406;51.044;3.766;2023-03-25T00:55:43;100388.77;;;9.12;100.00
63281;BME280;49406;51.044;3.766;2023-03-25T00:58:18;100390.15;;;9.11;100.00
63281;BME280;49406;51.044;3.766;2023-03-25T01:00:53;100388.59;;;9.11;100.00
63281;BME280;49406;51.044;3.766;2023-03-25T01:03:29;100393.30;;;9.13;100.00
63281;BME280;49406;51.044;3.766;2023-03-25T01:06:07;100385.45;;;9.11;100.00
63281;BME280;49406;51.044;3.766;2023-03-25T01:08:43;100387.13;;;9.05;100.00
63281;BME280;49406;51.044;3.766;2023-03-25T01:11:19;100380.91;;;9.10;100.00
63281;BME280;49406;51.044;3.766;2023-03-25T01:13:56;100382.30;;;9.11;100.00
63281;BME280;49406;51.044;3.766;2023-03-25T01:16:32;100379.85;;;9.10;100.00
63281;BME280;49406;51.044;3.766;2023-03-25T01:19:07;100379.13;;;9.07;100.00
63281;BME280;49406;51.044;3.766;2023-03-25T01:21:42;100380.32;;;9.04;100.00
63281;BME280;49406;51.044;3.766;2023-03-25T01:24:17;100380.83;;;9.00;100.00
63281;BME280;49406;51.044;3.766;2023-03-25T01:26:52;100374.72;;;9.00;100.00
63281;BME280;49406;51.044;3.766;2023-03-25T01:29:27;100373.50;;;8.99;100.00
63281;BME280;49406;51.044;3.766;2023-03-25T01:32:00;100373.13;;;8.96;100.00
63281;BME280;49406;51.044;3.766;2023-03-25T01:34:35;100369.81;;;8.94;100.00
63281;BME280;49406;51.044;3.766;2023-03-25T01:37:10;100375.36;;;8.92;100.00
63281;BME280;49406;51.044;3.766;2023-03-25T01:39:45;100367.70;;;8.92;100.00
63281;BME280;49406;51.044;3.766;2023-03-25T01:42:20;100359.14;;;8.90;100.00
63281;BME280;49406;51.044;3.766;2023-03-25T01:45:22;100360.34;;;8.90;100.00
63281;BME280;49406;51.044;3.766;2023-03-25T01:48:02;100357.02;;;8.89;100.00
63281;BME280;49406;51.044;3.766;2023-03-25T01:50:41;100351.62;;;8.89;100.00
63281;BME280;49406;51.044;3.766;2023-03-25T01:53:18;100353.21;;;8.90;100.00
63281;BME280;49406;51.044;3.766;2023-03-25T01:55:53;100350.80;;;8.92;100.00
63281;BME280;49406;51.044;3.766;2023-03-25T01:58:29;100346.95;;;8.92;100.00
63281;BME280;49406;51.044;3.766;2023-03-25T02:01:05;100347.09;;;8.89;100.00
63281;BME280;49406;51.044;3.766;2023-03-25T02:03:43;100342.39;;;8.90;100.00
63281;BME280;49406;51.044;3.766;2023-03-25T02:06:25;100344.73;;;9.00;100.00
63281;BME280;49406;51.044;3.766;2023-03-25T02:09:04;100341.77;;;9.01;100.00
63281;BME280;49406;51.044;3.766;2023-03-25T02:11:41;100341.60;;;9.03;100.00
63281;BME280;49406;51.044;3.766;2023-03-25T02:14:18;100342.29;;;9.01;100.00
63281;BME280;49406;51.044;3.766;2023-03-25T02:17:01;100339.55;;;9.06;100.00
63281;BME280;49406;51.044;3.766;2023-03-25T02:26:17;100344.11;;;9.10;100.00
63281;BME280;49406;51.044;3.766;2023-03-25T02:29:03;100338.16;;;9.08;100.00
63281;BME280;49406;51.044;3.766;2023-03-25T02:31:54;100344.09;;;9.07;100.00
63281;BME280;49406;51.044;3.766;2023-03-25T02:34:49;100346.15;;;9.04;100.00
63281;BME280;49406;51.044;3.766;2023-03-25T02:37:54;100344.55;;;8.97;100.00
63281;BME280;49406;51.044;3.766;2023-03-25T02:40:40;100347.72;;;9.05;100.00
63281;BME280;49406;51.044;3.766;2023-03-25T02:43:22;100345.30;;;9.06;100.00
63281;BME280;49406;51.044;3.766;2023-03-25T02:46:03;100351.04;;;9.06;100.00
63281;BME280;49406;51.044;3.766;2023-03-25T02:48:43;100360.63;;;9.06;100.00
63281;BME280;49406;51.044;3.766;2023-03-25T02:51:27;100354.36;;;9.06;100.00
63281;BME280;49406;51.044;3.766;2023-03-25T02:54:05;100349.80;;;9.02;100.00
63281;BME280;49406;51.044;3.766;2023-03-25T02:56:43;100349.26;;;8.98;100.00
63281;BME280;49406;51.044;3.766;2023-03-25T02:59:20;100350.81;;;8.97;100.00
63281;BME280;49406;51.044;3.766;2023-03-25T03:01:57;100342.94;;;8.92;100.00
63281;BME280;49406;51.044;3.766;2023-03-25T03:04:32;100333.01;;;8.91;100.00
63281;BME280;49406;51.044;3.766;2023-03-25T03:07:24;100329.66;;;8.89;100.00
63281;BME280;49406;51.044;3.766;2023-03-25T03:10:07;100328.41;;;8.84;100.00
63281;BME280;49406;51.044;3.766;2023-03-25T03:13:00;100328.76;;;8.84;100.00
63281;BME280;49406;51.044;3.766;2023-03-25T03:15:43;100329.79;;;8.80;100.00
63281;BME280;49406;51.044;3.766;2023-03-25T03:18:29;100333.79;;;8.80;100.00
63281;BME280;49406;51.044;3.766;2023-03-25T03:21:14;100333.63;;;8.81;100.00
63281;BME280;49406;51.044;3.766;2023-03-25T03:23:56;100328.03;;;8.79;100.00
63281;BME280;49406;51.044;3.766;2023-03-25T03:26:39;100322.79;;;8.77;100.00
63281;BME280;49406;51.044;3.766;2023-03-25T03:29:18;100326.27;;;8.77;100.00
63281;BME280;49406;51.044;3.766;2023-03-25T03:31:59;100320.17;;;8.76;100.00
63281;BME280;49406;51.044;3.766;2023-03-25T03:34:39;100317.58;;;8.77;100.00
63281;BME280;49406;51.044;3.766;2023-03-25T03:37:19;100321.95;;;8.82;100.00
63281;BME280;49406;51.044;3.766;2023-03-25T03:39:57;100318.13;;;8.87;100.00
63281;BME280;49406;51.044;3.766;2023-03-25T03:42:34;100320.06;;;8.89;100.00
63281;BME280;49406;51.044;3.766;2023-03-25T03:45:15;100316.65;;;8.96;100.00
63281;BME280;49406;51.044;3.766;2023-03-25T03:47:53;100319.15;;;9.07;100.00
63281;BME280;49406;51.044;3.766;2023-03-25T03:50:31;100323.71;;;9.12;100.00
63281;BME280;49406;51.044;3.766;2023-03-25T03:53:13;100326.34;;;9.15;100.00
63281;BME280;49406;51.044;3.766;2023-03-25T03:55:51;100326.19;;;9.19;100.00
63281;BME280;49406;51.044;3.766;2023-03-25T03:58:30;100336.33;;;9.23;100.00
63281;BME280;49406;51.044;3.766;2023-03-25T04:01:09;100335.78;;;9.21;100.00
63281;BME280;49406;51.044;3.766;2023-03-25T04:03:48;100338.45;;;9.28;100.00
63281;BME280;49406;51.044;3.766;2023-03-25T04:06:28;100337.59;;;9.32;100.00
63281;BME280;49406;51.044;3.766;2023-03-25T04:09:10;100342.84;;;9.34;100.00
63281;BME280;49406;51.044;3.766;2023-03-25T04:11:55;100346.14;;;9.30;100.00
63281;BME280;49406;51.044;3.766;2023-03-25T04:14:32;100343.70;;;9.29;100.00
63281;BME280;49406;51.044;3.766;2023-03-25T04:17:07;100350.87;;;9.35;100.00
63281;BME280;49406;51.044;3.766;2023-03-25T04:19:42;100340.55;;;9.30;100.00
63281;BME280;49406;51.044;3.766;2023-03-25T04:22:21;100354.65;;;9.24;100.00
63281;BME280;49406;51.044;3.766;2023-03-25T04:24:56;100362.19;;;9.29;100.00
63281;BME280;49406;51.044;3.766;2023-03-25T04:27:32;100357.13;;;9.28;100.00
63281;BME280;49406;51.044;3.766;2023-03-25T04:30:11;100363.23;;;9.25;100.00
63281;BME280;49406;51.044;3.766;2023-03-25T04:32:47;100368.90;;;9.17;100.00
63281;BME280;49406;51.044;3.766;2023-03-25T04:35:21;100368.89;;;9.14;100.00
63281;BME280;49406;51.044;3.766;2023-03-25T04:37:58;100363.83;;;9.14;100.00
63281;BME280;49406;51.044;3.766;2023-03-25T04:40:34;100374.80;;;9.11;100.00
63281;BME280;49406;51.044;3.766;2023-03-25T04:43:07;100372.83;;;9.04;100.00
63281;BME280;49406;51.044;3.766;2023-03-25T04:45:42;100365.30;;;8.99;100.00
63281;BME280;49406;51.044;3.766;2023-03-25T04:48:25;100380.15;;;9.04;100.00
63281;BME280;49406;51.044;3.766;2023-03-25T04:51:02;100377.33;;;8.97;100.00
63281;BME280;49406;51.044;3.766;2023-03-25T04:53:37;100384.23;;;8.90;100.00
63281;BME280;49406;51.044;3.766;2023-03-25T04:56:15;100393.43;;;8.86;100.00
63281;BME280;49406;51.044;3.766;2023-03-25T04:58:50;100396.43;;;8.90;100.00
63281;BME280;49406;51.044;3.766;2023-03-25T05:01:27;100385.64;;;8.91;100.00
63281;BME280;49406;51.044;3.766;2023-03-25T05:04:05;100390.36;;;8.92;100.00
63281;BME280;49406;51.044;3.766;2023-03-25T05:06:41;100389.09;;;8.88;100.00
63281;BME280;49406;51.044;3.766;2023-03-25T05:09:18;100391.77;;;8.93;100.00
63281;BME280;49406;51.044;3.766;2023-03-25T05:11:54;100390.88;;;8.91;100.00
63281;BME280;49406;51.044;3.766;2023-03-25T05:14:29;100394.16;;;8.90;100.00
63281;BME280;49406;51.044;3.766;2023-03-25T05:17:04;100392.89;;;8.83;100.00
63281;BME280;49406;51.044;3.766;2023-03-25T05:19:38;100388.53;;;8.82;100.00
63281;BME280;49406;51.044;3.766;2023-03-25T05:22:16;100396.94;;;8.88;100.00
63281;BME280;49406;51.044;3.766;2023-03-25T05:24:50;100397.96;;;8.85;100.00
63281;BME280;49406;51.044;3.766;2023-03-25T05:27:26;100403.88;;;8.83;100.00
63281;BME280;49406;51.044;3.766;2023-03-25T05:30:03;100400.88;;;8.78;100.00
63281;BME280;49406;51.044;3.766;2023-03-25T05:32:38;100406.05;;;8.73;100.00
63281;BME280;49406;51.044;3.766;2023-03-25T05:35:13;100413.63;;;8.81;100.00
63281;BME280;49406;51.044;3.766;2023-03-25T05:37:48;100411.20;;;8.82;100.00
63281;BME280;49406;51.044;3.766;2023-03-25T05:40:23;100413.98;;;8.83;100.00
63281;BME280;49406;51.044;3.766;2023-03-25T05:42:58;100409.80;;;8.83;100.00
63281;BME280;49406;51.044;3.766;2023-03-25T05:45:34;100416.08;;;8.83;100.00
63281;BME280;49406;51.044;3.766;2023-03-25T05:48:09;100414.58;;;8.92;100.00
63281;BME280;49406;51.044;3.766;2023-03-25T05:50:44;100414.61;;;8.95;100.00
63281;BME280;49406;51.044;3.766;2023-03-25T05:53:18;100421.41;;;8.95;100.00
63281;BME280;49406;51.044;3.766;2023-03-25T05:55:53;100418.98;;;8.97;100.00
63281;BME280;49406;51.044;3.766;2023-03-25T05:58:28;100422.83;;;8.97;100.00
63281;BME280;49406;51.044;3.766;2023-03-25T06:01:05;100413.04;;;8.95;100.00
63281;BME280;49406;51.044;3.766;2023-03-25T06:03:41;100421.86;;;9.09;100.00
63281;BME280;49406;51.044;3.766;2023-03-25T06:06:17;100416.31;;;9.12;100.00
63281;BME280;49406;51.044;3.766;2023-03-25T06:08:58;100426.09;;;9.14;100.00
63281;BME280;49406;51.044;3.766;2023-03-25T06:11:33;100424.70;;;9.14;100.00
63281;BME280;49406;51.044;3.766;2023-03-25T06:14:10;100422.41;;;9.12;100.00
63281;BME280;49406;51.044;3.766;2023-03-25T06:16:45;100427.35;;;9.20;100.00
63281;BME280;49406;51.044;3.766;2023-03-25T06:19:22;100425.08;;;9.19;100.00
63281;BME280;49406;51.044;3.766;2023-03-25T06:21:58;100425.59;;;9.17;100.00
63281;BME280;49406;51.044;3.766;2023-03-25T06:24:33;100428.95;;;9.24;100.00
63281;BME280;49406;51.044;3.766;2023-03-25T06:27:11;100430.93;;;9.33;100.00
63281;BME280;49406;51.044;3.766;2023-03-25T06:29:46;100427.65;;;9.38;100.00
63281;BME280;49406;51.044;3.766;2023-03-25T06:32:21;100436.23;;;9.41;100.00
63281;BME280;49406;51.044;3.766;2023-03-25T06:34:58;100432.20;;;9.39;100.00
63281;BME280;49406;51.044;3.766;2023-03-25T06:37:32;100438.19;;;9.49;100.00
63281;BME280;49406;51.044;3.766;2023-03-25T06:40:09;100441.20;;;9.57;100.00
63281;BME280;49406;51.044;3.766;2023-03-25T06:42:44;100440.19;;;9.61;100.00
63281;BME280;49406;51.044;3.766;2023-03-25T06:45:19;100446.11;;;9.60;100.00
63281;BME280;49406;51.044;3.766;2023-03-25T06:47:54;100445.65;;;9.71;100.00
63281;BME280;49406;51.044;3.766;2023-03-25T06:50:29;100453.73;;;9.83;100.00
63281;BME280;49406;51.044;3.766;2023-03-25T06:53:04;100454.44;;;9.88;100.00
63281;BME280;49406;51.044;3.766;2023-03-25T06:55:38;100453.07;;;9.89;100.00
63281;BME280;49406;51.044;3.766;2023-03-25T06:58:13;100459.25;;;10.04;100.00
63281;BME280;49406;51.044;3.766;2023-03-25T07:00:51;100450.13;;;10.32;100.00
63281;BME280;49406;51.044;3.766;2023-03-25T07:03:26;100457.98;;;10.28;100.00
63281;BME280;49406;51.044;3.766;2023-03-25T07:06:01;100464.02;;;10.20;100.00
63281;BME280;49406;51.044;3.766;2023-03-25T07:08:36;100468.05;;;10.21;100.00
63281;BME280;49406;51.044;3.766;2023-03-25T07:11:13;100467.02;;;10.22;100.00
63281;BME280;49406;51.044;3.766;2023-03-25T07:13:46;100462.98;;;10.20;100.00
63281;BME280;49406;51.044;3.766;2023-03-25T07:16:26;100468.73;;;10.15;100.00
63281;BME280;49406;51.044;3.766;2023-03-25T07:19:01;100475.19;;;10.17;100.00
63281;BME280;49406;51.044;3.766;2023-03-25T07:21:35;100478.73;;;10.21;100.00
63281;BME280;49406;51.044;3.766;2023-03-25T07:24:10;100478.86;;;10.17;100.00
63281;BME280;49406;51.044;3.766;2023-03-25T07:26:45;100480.75;;;10.10;100.00
63281;BME280;49406;51.044;3.766;2023-03-25T07:29:19;100484.98;;;10.19;100.00
63281;BME280;49406;51.044;3.766;2023-03-25T07:31:54;100490.98;;;10.24;100.00
63281;BME280;49406;51.044;3.766;2023-03-25T07:34:29;100490.05;;;10.19;100.00
63281;BME280;49406;51.044;3.766;2023-03-25T07:37:03;100494.59;;;10.18;100.00
63281;BME280;49406;51.044;3.766;2023-03-25T07:39:40;100491.16;;;10.24;100.00
63281;BME280;49406;51.044;3.766;2023-03-25T07:42:15;100494.79;;;10.21;100.00
63281;BME280;49406;51.044;3.766;2023-03-25T07:44:49;100498.42;;;10.17;100.00
63281;BME280;49406;51.044;3.766;2023-03-25T07:47:24;100499.27;;;10.09;100.00
63281;BME280;49406;51.044;3.766;2023-03-25T07:49:59;100496.14;;;10.14;100.00
63281;BME280;49406;51.044;3.766;2023-03-25T07:52:33;100498.45;;;10.20;100.00
63281;BME280;49406;51.044;3.766;2023-03-25T07:55:09;100501.92;;;10.17;100.00
63281;BME280;49406;51.044;3.766;2023-03-25T07:57:44;100500.17;;;10.17;100.00
63281;BME280;49406;51.044;3.766;2023-03-25T08:00:20;100503.05;;;10.27;100.00
63281;BME280;49406;51.044;3.766;2023-03-25T08:02:54;100503.94;;;10.32;100.00
63281;BME280;49406;51.044;3.766;2023-03-25T08:05:30;100506.37;;;10.30;100.00
63281;BME280;49406;51.044;3.766;2023-03-25T08:08:05;100513.86;;;10.27;100.00
63281;BME280;49406;51.044;3.766;2023-03-25T08:10:42;100517.23;;;10.38;100.00
63281;BME280;49406;51.044;3.766;2023-03-25T08:13:16;100523.55;;;10.42;100.00
63281;BME280;49406;51.044;3.766;2023-03-25T08:15:51;100512.37;;;10.44;100.00
63281;BME280;49406;51.044;3.766;2023-03-25T08:18:26;100522.73;;;10.58;100.00
63281;BME280;49406;51.044;3.766;2023-03-25T08:21:00;100531.51;;;10.75;100.00
63281;BME280;49406;51.044;3.766;2023-03-25T08:23:35;100535.02;;;10.85;100.00
63281;BME280;49406;51.044;3.766;2023-03-25T08:26:10;100533.66;;;10.99;100.00
63281;BME280;49406;51.044;3.766;2023-03-25T08:28:45;100544.02;;;11.24;100.00
63281;BME280;49406;51.044;3.766;2023-03-25T08:31:20;100540.16;;;11.33;100.00
63281;BME280;49406;51.044;3.766;2023-03-25T08:33:55;100542.25;;;11.38;100.00
63281;BME280;49406;51.044;3.766;2023-03-25T08:36:29;100532.98;;;11.39;99.45
63281;BME280;49406;51.044;3.766;2023-03-25T08:39:04;100539.29;;;11.48;98.59
63281;BME280;49406;51.044;3.766;2023-03-25T09:18:57;100574.53;;;10.35;100.00
63281;BME280;49406;51.044;3.766;2023-03-25T09:21:30;100574.66;;;10.62;100.00
63281;BME280;49406;51.044;3.766;2023-03-25T09:24:02;100587.61;;;10.69;100.00
63281;BME280;49406;51.044;3.766;2023-03-25T09:26:36;100583.23;;;10.64;100.00
63281;BME280;49406;51.044;3.766;2023-03-25T09:29:08;100595.42;;;10.57;100.00
63281;BME280;49406;51.044;3.766;2023-03-25T09:40:09;100601.86;;;10.47;100.00
63281;BME280;49406;51.044;3.766;2023-03-25T09:42:53;100604.61;;;10.40;100.00
63281;BME280;49406;51.044;3.766;2023-03-25T09:45:35;100601.73;;;10.57;100.00
63281;BME280;49406;51.044;3.766;2023-03-25T09:48:23;100597.25;;;10.74;100.00
63281;BME280;49406;51.044;3.766;2023-03-25T09:51:03;100591.34;;;10.83;100.00
63281;BME280;49406;51.044;3.766;2023-03-25T09:53:42;100582.59;;;10.88;100.00
63281;BME280;49406;51.044;3.766;2023-03-25T09:56:21;100581.40;;;11.00;100.00
63281;BME280;49406;51.044;3.766;2023-03-25T09:59:00;100584.41;;;11.21;100.00
63281;BME280;49406;51.044;3.766;2023-03-25T10:08:26;100598.64;;;11.43;100.00
63281;BME280;49406;51.044;3.766;2023-03-25T10:11:11;100597.41;;;11.47;99.74
63281;BME280;49406;51.044;3.766;2023-03-25T10:13:52;100595.80;;;11.40;100.00
63281;BME280;49406;51.044;3.766;2023-03-25T10:16:34;100595.27;;;11.40;100.00
63281;BME280;49406;51.044;3.766;2023-03-25T10:19:26;100593.20;;;11.47;100.00
63281;BME280;49406;51.044;3.766;2023-03-25T10:22:08;100598.98;;;11.63;99.41
63281;BME280;49406;51.044;3.766;2023-03-25T10:24:50;100602.83;;;12.02;98.36
63281;BME280;49406;51.044;3.766;2023-03-25T10:27:28;100602.83;;;12.07;98.84
63281;BME280;49406;51.044;3.766;2023-03-25T10:30:12;100593.56;;;11.87;95.74
63281;BME280;49406;51.044;3.766;2023-03-25T10:32:50;100606.52;;;11.56;96.71
63281;BME280;49406;51.044;3.766;2023-03-25T10:35:29;100613.66;;;11.40;97.77
63281;BME280;49406;51.044;3.766;2023-03-25T10:38:05;100621.73;;;11.43;98.96
63281;BME280;49406;51.044;3.766;2023-03-25T10:40:42;100621.55;;;11.51;99.55
63281;BME280;49406;51.044;3.766;2023-03-25T10:43:26;100621.56;;;11.49;98.09
63281;BME280;49406;51.044;3.766;2023-03-25T10:46:10;100614.56;;;11.46;97.70
63281;BME280;49406;51.044;3.766;2023-03-25T11:04:14;100625.39;;;12.80;95.65
63281;BME280;49406;51.044;3.766;2023-03-25T11:06:50;100622.70;;;13.30;91.83
63281;BME280;49406;51.044;3.766;2023-03-25T11:09:25;100621.15;;;13.25;90.05
63281;BME280;49406;51.044;3.766;2023-03-25T11:12:01;100624.81;;;13.30;90.72
63281;BME280;49406;51.044;3.766;2023-03-25T11:14:38;100619.40;;;13.51;90.66
63281;BME280;49406;51.044;3.766;2023-03-25T11:17:15;100613.71;;;13.81;87.44
63281;BME280;49406;51.044;3.766;2023-03-25T11:19:54;100602.23;;;14.05;83.64
63281;BME280;49406;51.044;3.766;2023-03-25T11:22:33;100613.99;;;14.23;80.44
63281;BME280;49406;51.044;3.766;2023-03-25T11:25:15;100614.33;;;14.25;78.46
63281;BME280;49406;51.044;3.766;2023-03-25T11:27:54;100610.20;;;14.15;75.98
63281;BME280;49406;51.044;3.766;2023-03-25T11:30:27;100613.61;;;13.93;76.03
63281;BME280;49406;51.044;3.766;2023-03-25T11:33:03;100610.77;;;13.75;78.82
63281;BME280;49406;51.044;3.766;2023-03-25T11:35:39;100615.82;;;13.60;82.19
63281;BME280;49406;51.044;3.766;2023-03-25T11:38:17;100619.86;;;13.34;85.23
63281;BME280;49406;51.044;3.766;2023-03-25T11:40:53;100621.08;;;13.02;90.96
63281;BME280;49406;51.044;3.766;2023-03-25T11:43:31;100630.45;;;12.35;99.03
63281;BME280;49406;51.044;3.766;2023-03-25T11:46:09;100635.25;;;11.82;100.00
63281;BME280;49406;51.044;3.766;2023-03-25T11:48:45;100631.55;;;11.69;100.00
63281;BME280;49406;51.044;3.766;2023-03-25T11:51:20;100631.06;;;11.80;100.00
63281;BME280;49406;51.044;3.766;2023-03-25T11:53:56;100634.54;;;11.89;100.00
63281;BME280;49406;51.044;3.766;2023-03-25T11:56:33;100627.91;;;11.96;100.00
63281;BME280;49406;51.044;3.766;2023-03-25T11:59:15;100635.27;;;11.97;100.00
63281;BME280;49406;51.044;3.766;2023-03-25T12:01:49;100633.52;;;11.93;98.43
63281;BME280;49406;51.044;3.766;2023-03-25T12:04:24;100635.78;;;11.97;96.54
63281;BME280;49406;51.044;3.766;2023-03-25T12:06:59;100632.95;;;12.17;96.99
63281;BME280;49406;51.044;3.766;2023-03-25T12:09:32;100628.02;;;12.28;95.75
63281;BME280;49406;51.044;3.766;2023-03-25T12:12:22;100631.69;;;12.34;94.79
63281;BME280;49406;51.044;3.766;2023-03-25T12:15:07;100631.33;;;12.38;92.23
63281;BME280;49406;51.044;3.766;2023-03-25T12:17:55;100636.58;;;12.45;92.46
63281;BME280;49406;51.044;3.766;2023-03-25T12:20:32;100634.14;;;12.36;92.06
63281;BME280;49406;51.044;3.766;2023-03-25T12:23:17;100654.50;;;12.17;96.53
63281;BME280;49406;51.044;3.766;2023-03-25T12:25:57;100658.02;;;12.02;98.72
63281;BME280;49406;51.044;3.766;2023-03-25T12:28:48;100657.50;;;11.82;99.55
63281;BME280;49406;51.044;3.766;2023-03-25T12:31:36;100656.94;;;11.71;100.00
63281;BME280;49406;51.044;3.766;2023-03-25T12:34:20;100655.05;;;11.81;100.00
63281;BME280;49406;51.044;3.766;2023-03-25T12:37:01;100657.33;;;11.89;99.93
63281;BME280;49406;51.044;3.766;2023-03-25T12:39:47;100661.88;;;11.81;99.50
63281;BME280;49406;51.044;3.766;2023-03-25T12:42:31;100668.52;;;11.80;99.67
63281;BME280;49406;51.044;3.766;2023-03-25T12:45:29;100665.91;;;12.13;99.07
63281;BME280;49406;51.044;3.766;2023-03-25T12:48:14;100657.47;;;12.22;97.26
63281;BME280;49406;51.044;3.766;2023-03-25T12:50:56;100661.33;;;12.22;96.09
63281;BME280;49406;51.044;3.766;2023-03-25T12:53:41;100662.20;;;12.33;95.11
63281;BME280;49406;51.044;3.766;2023-03-25T12:56:28;100658.13;;;12.49;92.66
63281;BME280;49406;51.044;3.766;2023-03-25T13:02:16;100674.44;;;12.39;92.56
63281;BME280;49406;51.044;3.766;2023-03-25T13:05:04;100668.48;;;12.38;92.38
63281;BME280;49406;51.044;3.766;2023-03-25T13:07:45;100676.39;;;12.33;91.15
63281;BME280;49406;51.044;3.766;2023-03-25T13:10:20;100684.65;;;12.31;91.82
63281;BME280;49406;51.044;3.766;2023-03-25T13:12:55;100681.12;;;12.41;92.05
63281;BME280;49406;51.044;3.766;2023-03-25T13:15:32;100681.23;;;12.65;91.83
63281;BME280;49406;51.044;3.766;2023-03-25T13:18:10;100686.95;;;12.86;92.12
63281;BME280;49406;51.044;3.766;2023-03-25T13:20:48;100685.10;;;13.11;91.42
63281;BME280;49406;51.044;3.766;2023-03-25T13:23:23;100679.45;;;13.21;86.96
63281;BME280;49406;51.044;3.766;2023-03-25T13:26:00;100674.69;;;13.25;86.50
63281;BME280;49406;51.044;3.766;2023-03-25T13:28:39;100674.43;;;13.41;85.82
63281;BME280;49406;51.044;3.766;2023-03-25T13:31:17;100671.23;;;13.49;80.85
63281;BME280;49406;51.044;3.766;2023-03-25T13:33:55;100676.30;;;13.50;79.00
63281;BME280;49406;51.044;3.766;2023-03-25T13:36:37;100681.89;;;13.56;79.06
63281;BME280;49406;51.044;3.766;2023-03-25T13:39:16;100683.23;;;13.67;77.81
63281;BME280;49406;51.044;3.766;2023-03-25T13:41:54;100690.20;;;13.72;78.03
63281;BME280;49406;51.044;3.766;2023-03-25T13:44:34;100672.95;;;13.76;76.29
63281;BME280;49406;51.044;3.766;2023-03-25T13:47:16;100678.11;;;13.69;76.39
63281;BME280;49406;51.044;3.766;2023-03-25T13:49:53;100672.88;;;13.63;77.23
63281;BME280;49406;51.044;3.766;2023-03-25T13:52:33;100675.20;;;13.58;76.59
63281;BME280;49406;51.044;3.766;2023-03-25T13:55:12;100685.46;;;13.46;76.23
63281;BME280;49406;51.044;3.766;2023-03-25T13:58:12;100686.41;;;13.34;76.42
63281;BME280;49406;51.044;3.766;2023-03-25T14:01:11;100681.20;;;13.20;77.61
63281;BME280;49406;51.044;3.766;2023-03-25T14:07:35;100696.51;;;13.12;79.25
63281;BME280;49406;51.044;3.766;2023-03-25T14:13:17;100702.65;;;13.15;80.21
63281;BME280;49406;51.044;3.766;2023-03-25T14:15:57;100689.27;;;13.23;79.92
63281;BME280;49406;51.044;3.766;2023-03-25T14:18:32;100694.70;;;13.27;80.45
63281;BME280;49406;51.044;3.766;2023-03-25T14:21:23;100699.95;;;13.33;80.65
63281;BME280;49406;51.044;3.766;2023-03-25T14:24:03;100705.59;;;13.29;80.22
63281;BME280;49406;51.044;3.766;2023-03-25T14:26:42;100704.49;;;13.34;80.65
63281;BME280;49406;51.044;3.766;2023-03-25T14:29:28;100717.60;;;13.46;79.61
63281;BME280;49406;51.044;3.766;2023-03-25T14:32:06;100713.19;;;13.49;76.32
63281;BME280;49406;51.044;3.766;2023-03-25T14:44:18;100729.59;;;13.92;75.91
63281;BME280;49406;51.044;3.766;2023-03-25T14:46:59;100719.95;;;13.88;75.97
63281;BME280;49406;51.044;3.766;2023-03-25T14:49:50;100717.05;;;13.78;76.28
63281;BME280;49406;51.044;3.766;2023-03-25T14:52:28;100717.17;;;13.85;77.27
63281;BME280;49406;51.044;3.766;2023-03-25T14:55:07;100713.66;;;13.85;76.99
63281;BME280;49406;51.044;3.766;2023-03-25T14:57:41;100710.68;;;13.84;76.50
63281;BME280;49406;51.044;3.766;2023-03-25T15:00:23;100715.46;;;13.75;76.53
63281;BME280;49406;51.044;3.766;2023-03-25T15:03:02;100726.01;;;13.79;77.47
63281;BME280;49406;51.044;3.766;2023-03-25T15:05:36;100727.88;;;13.87;77.76
63281;BME280;49406;51.044;3.766;2023-03-25T15:08:14;100717.14;;;13.89;75.99
63281;BME280;49406;51.044;3.766;2023-03-25T15:10:50;100728.05;;;13.86;74.27
63281;BME280;49406;51.044;3.766;2023-03-25T15:13:35;100716.17;;;13.80;73.09
63281;BME280;49406;51.044;3.766;2023-03-25T15:16:18;100730.39;;;13.79;73.32
63281;BME280;49406;51.044;3.766;2023-03-25T15:18:59;100725.11;;;13.82;71.91